NCAR-RAP Real-Time Weather Data

Output produced by METARs form (06 May 2021  15:46 UTC)
found at http://weather.rap.ucar.edu/surface/
 
KISW 061454Z AUTO 30005KT 10SM CLR 12/02 A3013 RMK AO2 SLP208 T01170022 58002
KISW 061354Z AUTO 31008KT 10SM CLR 10/04 A3015 RMK AO2 SLP213 T01000044
KISW 061254Z AUTO 31006KT 10SM CLR 08/05 A3015 RMK AO2 SLP214 T00780050
KISW 061154Z AUTO 29006KT 10SM FEW120 06/04 A3014 RMK AO2 SLP212 60003 70004 T00560044 10078 20056 53001
KISW 061054Z AUTO 28004KT 10SM OVC090 06/04 A3013 RMK AO2 SLP206 T00560044
KISW 060954Z AUTO 18004KT 10SM OVC080 06/05 A3011 RMK AO2 RAE04 SLP201 P0000 T00560050
KISW 060854Z AUTO 26005KT 10SM -RA FEW042 SCT049 OVC070 06/05 A3014 RMK AO2 RAB0755 SLP209 P0000 60003 T00610050 56004
KISW 060754Z AUTO 27005KT 10SM SCT050 OVC070 06/05 A3014 RMK AO2 RAE45 SLP210 P0001 T00610050
KISW 060654Z AUTO 28003KT 10SM -RA OVC039 07/05 A3014 RMK AO2 SLP211 P0002 T00670050
KISW 060554Z AUTO 30005KT 10SM -RA OVC039 08/04 A3015 RMK AO2 SLP213 P0001 60001 T00780044 10133 20078 401560000 55000
KISW 060454Z AUTO 00000KT 10SM -RA BKN048 OVC060 08/04 A3014 RMK AO2 RAB03 SLP210 P0000 T00830039
KISW 060354Z AUTO 31005KT 10SM FEW049 OVC065 10/01 A3015 RMK AO2 SLP214 T01000006
KISW 060254Z AUTO 24007KT 10SM BKN060 OVC070 11/M01 A3015 RMK AO2 SLP212 T01111006 51012
KISW 060154Z AUTO 25006KT 10SM OVC060 12/M02 A3014 RMK AO2 SLP209 T01171017
KISW 060054Z AUTO 32008KT 10SM OVC070 12/M03 A3012 RMK AO2 SLP206 T01221028